Welcome to Northern Hawkes Bay. New Zealand.
PWS Header
      nz Flag



Hit Counter


W3C Valid W3C Valid logo


    Wairoa

Select any of the Stations below to visit their websites.










Historic Data from Weather Underground
Select the location of interest below. Wairoa is the default. Please have patience, this Data is slow to load in.
Northern Hawkes Bay Historical Data
Daily Summary for April 20, 2017 Units:  English    Metric   Both
« Previous Day
Next Day »
Daily Weekly Monthly Yearly Custom
  High: Low: Average:
Temperature: 61.2 °F 46.9 °F 54.3 °F
Dew Point: 54.3 °F 44.1 °F 48.9 °F
Humidity: 99% 65% 83%
Wind Speed: 18.3mph 0mph 5.8mph
Wind Gust: 29.8mph - -
Wind- - WSW
Pressure: 30.3 in 30 in -
Precipitation: 0.02 in    
Historical Graphs
 
 
Tabular Data for April 20, 2017
Time Temperature Dew Point Pressure Wind Wind Speed Wind Gust Humidity Rainfall Rate (Hourly) solar
00:02 52.9 °F 52.3 °F 30 in North 1.6 mph 6 mph 98% 0 in 0 W/m2
00:07 52.9 °F 52.3 °F 30 in North 0.7 mph 5.4 mph 98% 0 in 0 W/m2
00:12 52.9 °F 52.3 °F 30 in Calm   4.5 mph 98% 0 in 0 W/m2
00:17 52.9 °F 52.3 °F 30 in North 2.2 mph 3.8 mph 98% 0 in 0 W/m2
00:22 53.1 °F 52.5 °F 30 in North 2.2 mph 4.5 mph 98% 0 in 0 W/m2
00:27 53.1 °F 52.5 °F 30 in Calm   4.5 mph 98% 0 in 0 W/m2
00:32 52.9 °F 52.3 °F 30 in North 1.6 mph 4.5 mph 98% 0 in 0 W/m2
00:37 52.7 °F 52.2 °F 30 in Calm   3.1 mph 98% 0 in 0 W/m2
00:42 52.5 °F 52 °F 30 in Calm   3.1 mph 98% 0 in 0 W/m2
00:47 52.2 °F 51.6 °F 30 in Calm   2.2 mph 98% 0 in 0 W/m2
00:52 52.2 °F 51.6 °F 30 in Calm   1.6 mph 98% 0 in 0 W/m2
00:57 52.2 °F 51.6 °F 30 in Calm   2.2 mph 98% 0 in 0 W/m2
01:02 52 °F 51.4 °F 30 in Calm   4.5 mph 98% 0 in 0 W/m2
01:07 52 °F 51.4 °F 30 in Calm   4.5 mph 98% 0 in 0 W/m2
01:12 51.8 °F 51.3 °F 30 in NW 1.6 mph 4.5 mph 98% 0 in 0 W/m2
01:17 51.6 °F 51.4 °F 30 in NW 0.7 mph 4.5 mph 99% 0 in 0 W/m2
01:22 51.4 °F 51.3 °F 30 in NNW 1.6 mph 3.8 mph 99% 0 in 0 W/m2
01:27 51.3 °F 51.1 °F 30 in NNW 1.6 mph 3.8 mph 99% 0 in 0 W/m2
01:32 51.1 °F 50.7 °F 30 in Calm   3.8 mph 99% 0 in 0 W/m2
01:37 50.9 °F 50.5 °F 30 in Calm   3.8 mph 99% 0 in 0 W/m2
01:42 50.7 °F 50.5 °F 30 in Calm   2.2 mph 99% 0 in 0 W/m2
01:47 50.5 °F 50.4 °F 30 in NNW 1.6 mph 3.8 mph 99% 0 in 0 W/m2
01:52 50.5 °F 50.4 °F 30 in Calm   3.8 mph 99% 0 in 0 W/m2
01:57 50.4 °F 50.2 °F 30 in NW 2.2 mph 3.1 mph 99% 0 in 0 W/m2
02:13 50.4 °F 50.2 °F 30 in Calm   3.8 mph 99% 0 in 0 W/m2
02:18 50.4 °F 50.2 °F 30 in Calm     99% 0 in 0 W/m2
02:23 50.4 °F 50.2 °F 30 in NW 1.6 mph 3.1 mph 99% 0 in 0 W/m2
02:28 50.2 °F 49.8 °F 30 in Calm   3.1 mph 99% 0 in 0 W/m2
02:33 50.2 °F 49.8 °F 30 in Calm   3.1 mph 99% 0 in 0 W/m2
02:38 50.2 °F 49.8 °F 30 in Calm   3.8 mph 99% 0 in 0 W/m2
02:43 50.2 °F 49.8 °F 30 in Calm   3.8 mph 99% 0 in 0 W/m2
02:48 50.2 °F 49.8 °F 30 in Calm   3.1 mph 99% 0 in 0 W/m2
02:53 50 °F 49.6 °F 30 in Calm   3.1 mph 99% 0 in 0 W/m2
02:58 50 °F 49.6 °F 30 in Calm   2.2 mph 99% 0 in 0 W/m2
03:03 50 °F 49.6 °F 30 in Calm   2.2 mph 99% 0 in 0 W/m2
03:08 50 °F 49.6 °F 30 in Calm   2.2 mph 99% 0 in 0 W/m2
03:13 50 °F 49.6 °F 30 in Calm     99% 0 in 0 W/m2
03:18 50 °F 49.6 °F 30 in Calm   3.1 mph 99% 0 in 0 W/m2
03:23 49.8 °F 49.6 °F 30 in Calm   3.1 mph 99% 0 in 0 W/m2
03:28 49.8 °F 49.6 °F 30 in Calm   3.1 mph 99% 0 in 0 W/m2
03:33 49.6 °F 49.5 °F 30 in Calm   3.1 mph 99% 0 in 0 W/m2
03:39 49.5 °F 49.3 °F 30 in Calm   3.1 mph 99% 0 in 0 W/m2
03:44 49.5 °F 49.3 °F 30 in Calm     99% 0 in 0 W/m2
03:49 49.3 °F 48.9 °F 30 in North 0.7 mph 4.5 mph 99% 0 in 0 W/m2
03:54 49.5 °F 49.3 °F 30 in Calm   4.5 mph 99% 0 in 0 W/m2
03:59 49.5 °F 49.3 °F 30 in Calm   3.1 mph 99% 0 in 0 W/m2
04:04 49.5 °F 49.3 °F 30 in Calm   3.1 mph 99% 0 in 0 W/m2
04:09 49.5 °F 49.3 °F 30 in Calm     99% 0 in 0 W/m2
04:14 49.5 °F 49.3 °F 30 in NNE 0.7 mph 3.1 mph 99% 0 in 0 W/m2
04:16 49.5 °F 49.3 °F 30 in Calm   3.1 mph 99% 0 in 0 W/m2
04:21 49.5 °F 49.3 °F 30 in North 1.6 mph 3.8 mph 99% 0 in 0 W/m2
04:26 49.5 °F 49.3 °F 30 in Calm   3.8 mph 99% 0 in 0 W/m2
04:31 49.3 °F 48.9 °F 30 in Calm   2.2 mph 99% 0 in 0 W/m2
04:36 49.1 °F 48.7 °F 30 in Calm     99% 0 in 0 W/m2
04:41 48.9 °F 48.7 °F 30 in Calm     99% 0 in 0 W/m2
04:46 48.7 °F 48.6 °F 30 in Calm     99% 0 in 0 W/m2
04:51 48.7 °F 48.6 °F 30 in Calm     99% 0 in 0 W/m2
05:07 47.8 °F 47.7 °F 30 in Calm   2.2 mph 99% 0 in 0 W/m2
05:12 47.8 °F 47.7 °F 30 in Calm     99% 0 in 0 W/m2
05:17 47.7 °F 47.5 °F 30 in NW 1.6 mph 3.8 mph 99% 0 in 0 W/m2
05:22 47.7 °F 47.5 °F 30.1 in Calm   3.8 mph 99% 0 in 0 W/m2
05:27 47.5 °F 47.1 °F 30.1 in Calm   2.2 mph 99% 0 in 0 W/m2
05:32 47.5 °F 47.1 °F 30.1 in Calm     99% 0 in 0 W/m2
05:37 47.3 °F 46.9 °F 30.1 in Calm     99% 0 in 0 W/m2
05:42 47.3 °F 46.9 °F 30.1 in Calm     99% 0 in 0 W/m2
05:46 47.1 °F 46.9 °F 30.1 in Calm     99% 0 in 0 W/m2
05:51 47.1 °F 46.9 °F 30.1 in West 0.7 mph 3.1 mph 99% 0 in 0 W/m2
05:56 47.1 °F 46.9 °F 30.1 in NW 0.7 mph 3.1 mph 99% 0 in 0 W/m2
06:01 47.3 °F 46.9 °F 30.1 in Calm   3.1 mph 99% 0 in 0 W/m2
06:06 47.3 °F 46.9 °F 30.1 in Calm   3.1 mph 99% 0 in 0 W/m2
06:11 47.1 °F 46.9 °F 30.1 in Calm     99% 0 in 0 W/m2
06:16 47.1 °F 46.9 °F 30.1 in Calm   3.8 mph 99% 0 in 0 W/m2
06:21 47.1 °F 46.9 °F 30.1 in Calm   3.8 mph 99% 0 in 0 W/m2
06:26 47.3 °F 46.9 °F 30.1 in Calm     99% 0 in 0 W/m2
06:31 47.1 °F 46.9 °F 30.1 in Calm     99% 0 in 0 W/m2
06:36 47.1 °F 46.9 °F 30.1 in Calm     99% 0 in 0 W/m2
06:41 47.1 °F 46.9 °F 30.1 in Calm     99% 0 in 1 W/m2
06:46 46.9 °F 46.8 °F 30.1 in Calm     99% 0 in 2 W/m2
06:51 47.1 °F 46.9 °F 30.1 in Calm     99% 0 in 4 W/m2
06:56 47.1 °F 46.9 °F 30.1 in Calm     99% 0 in 7 W/m2
07:01 47.5 °F 47.1 °F 30.1 in Calm     99% 0 in 8 W/m2
07:06 47.5 °F 47.1 °F 30.1 in Calm   2.2 mph 99% 0 in 11 W/m2
07:11 48 °F 47.8 °F 30.1 in Calm   3.8 mph 99% 0 in 12 W/m2
07:16 47.8 °F 47.7 °F 30.1 in Calm   3.8 mph 99% 0 in 14 W/m2
07:21 48 °F 47.8 °F 30.1 in Calm     99% 0 in 18 W/m2
07:26 48 °F 47.8 °F 30.1 in North 2.2 mph 3.1 mph 99% 0 in 22 W/m2
07:31 48.9 °F 48.7 °F 30.1 in Calm   3.8 mph 99% 0 in 32 W/m2
07:36 48.4 °F 48 °F 30.1 in Calm   3.8 mph 99% 0 in 41 W/m2
07:41 48.6 °F 48.4 °F 30.1 in NNW 3.1 mph 5.4 mph 99% 0 in 54 W/m2
07:46 48.7 °F 48.6 °F 30.1 in NNW 0.7 mph 5.4 mph 99% 0 in 84 W/m2
07:51 49.3 °F 48.9 °F 30.1 in Calm   5.4 mph 99% 0 in 145 W/m2
07:56 50.2 °F 49.8 °F 30.1 in North 3.1 mph 5.4 mph 99% 0 in 182 W/m2
08:01 50.5 °F 50.4 °F 30.1 in NNW 3.8 mph 4.5 mph 99% 0 in 151 W/m2
08:06 50.9 °F 50.5 °F 30.1 in Calm   4.5 mph 99% 0 in 127 W/m2
08:11 51.6 °F 51.4 °F 30.1 in NNW 2.2 mph 6 mph 99% 0 in 121 W/m2
08:16 51.1 °F 50.7 °F 30.1 in NNW 2.2 mph 6 mph 99% 0 in 147 W/m2
08:21 51.1 °F 50.7 °F 30.1 in NNW 3.1 mph 6 mph 99% 0 in 143 W/m2
08:26 51.4 °F 51.3 °F 30.1 in NW 3.1 mph 5.4 mph 99% 0 in 119 W/m2
08:31 51.4 °F 51.3 °F 30.1 in Calm   5.4 mph 99% 0 in 151 W/m2
08:36 52.3 °F 51.8 °F 30.1 in Calm   5.4 mph 98% 0 in 146 W/m2
08:41 52.5 °F 52 °F 30.1 in Calm   5.4 mph 98% 0 in 64 W/m2
08:46 52.7 °F 52.2 °F 30.1 in Calm     98% 0 in 78 W/m2
08:51 53.4 °F 52.9 °F 30.1 in Calm     98% 0 in 89 W/m2
08:56 53.8 °F 53.1 °F 30.1 in Calm   0.7 mph 97% 0 in 86 W/m2
09:01 54 °F 53.1 °F 30.1 in Calm   3.8 mph 97% 0 in 76 W/m2
09:06 54.5 °F 53.8 °F 30.1 in NW 6.9 mph 8.3 mph 97% 0 in 85 W/m2
09:11 55.2 °F 54.3 °F 30.1 in WNW 2.2 mph 8.3 mph 97% 0 in 75 W/m2
09:16 55.6 °F 54.1 °F 30.1 in West 3.1 mph 8.3 mph 95% 0 in 59 W/m2
09:21 55.6 °F 54 °F 30.1 in WSW 3.8 mph 9.8 mph 94% 0 in 68 W/m2
09:26 55.8 °F 53.2 °F 30.1 in WSW 0.7 mph 9.8 mph 91% 0 in 84 W/m2
09:31 55.9 °F 52.9 °F 30.1 in West 3.1 mph 7.6 mph 89% 0 in 82 W/m2
09:36 56.1 °F 52.5 °F 30.1 in West 3.1 mph 10.7 mph 88% 0 in 120 W/m2
09:41 56.5 °F 52.7 °F 30.1 in West 5.4 mph 10.7 mph 87% 0 in 146 W/m2
09:46 57 °F 52.9 °F 30.1 in WSW 3.8 mph 10.7 mph 86% 0 in 164 W/m2
09:51 57.4 °F 52.5 °F 30.1 in WSW 1.6 mph 11.4 mph 84% 0 in 182 W/m2
09:56 57.7 °F 52.5 °F 30.1 in SW 10.7 mph 13.6 mph 83% 0 in 133 W/m2
10:01 57.4 °F 51.3 °F 30.1 in SW 5.4 mph 18.3 mph 80% 0 in 171 W/m2
10:06 57.7 °F 52 °F 30.1 in WSW 4.5 mph 18.3 mph 81% 0 in 211 W/m2
10:11 58.5 °F 52.3 °F 30.2 in WSW 10.7 mph 15.9 mph 80% 0 in 189 W/m2
10:16 58.1 °F 51.3 °F 30.1 in West 8.3 mph 19 mph 78% 0 in 218 W/m2
10:21 58.1 °F 51.6 °F 30.2 in West 9.2 mph 19 mph 79% 0 in 225 W/m2
10:26 58.1 °F 51.6 °F 30.2 in WSW 6.9 mph 19.7 mph 79% 0 in 166 W/m2
10:31 57.9 °F 51.4 °F 30.2 in SW 8.3 mph 19.7 mph 79% 0 in 195 W/m2
10:36 58.6 °F 52.2 °F 30.2 in SW 13.6 mph 16.8 mph 79% 0 in 521 W/m2
10:41 59 °F 51.8 °F 30.2 in WSW 10.7 mph 16.8 mph 77% 0 in 161 W/m2
10:46 59.2 °F 52 °F 30.2 in WSW 6.9 mph 16.8 mph 77% 0 in 202 W/m2
10:51 59.7 °F 52.5 °F 30.2 in WSW 7.6 mph 15.2 mph 77% 0 in 374 W/m2
10:56 60.4 °F 52.5 °F 30.2 in WSW 10.7 mph 15.9 mph 75% 0 in 481 W/m2
11:01 60.1 °F 51.8 °F 30.2 in WSW 11.4 mph 17.4 mph 74% 0 in 255 W/m2
11:06 59.9 °F 51.6 °F 30.2 in WSW 10.7 mph 17.4 mph 74% 0 in 543 W/m2
11:11 60.1 °F 51.8 °F 30.2 in SW 7.6 mph 17.4 mph 74% 0 in 315 W/m2
11:16 59.7 °F 51.4 °F 30.2 in WSW 13.6 mph 19 mph 74% 0 in 464 W/m2
11:21 60.1 °F 51.8 °F 30.2 in WSW 11.4 mph 19 mph 74% 0 in 553 W/m2
11:26 60.3 °F 51.6 °F 30.2 in WSW 6.9 mph 17.4 mph 73% 0 in 545 W/m2
11:31 60.6 °F 52 °F 30.2 in SW 6 mph 17.4 mph 73% 0 in 268 W/m2
11:36 60.1 °F 51.4 °F 30.2 in WSW 7.6 mph 15.9 mph 73% 0 in 291 W/m2
11:41 59.7 °F 51.4 °F 30.2 in WSW 13 mph 18.3 mph 74% 0 in 327 W/m2
11:46 59.5 °F 51.3 °F 30.2 in WSW 13 mph 18.3 mph 74% 0 in 223 W/m2
11:51 59.4 °F 51.1 °F 30.2 in SW 11.4 mph 19 mph 74% 0 in 244 W/m2
11:56 59.5 °F 51.3 °F 30.2 in WSW 9.8 mph 19 mph 74% 0 in 279 W/m2
12:01 60.1 °F 51.4 °F 30.2 in WSW 6 mph 15.2 mph 73% 0 in 619 W/m2
12:06 61.2 °F 51.6 °F 30.2 in SW 12.1 mph 15.9 mph 71% 0 in 381 W/m2
12:11 60.6 °F 51.3 °F 30.2 in SW 6 mph 18.3 mph 71% 0 in 682 W/m2
12:16 60.8 °F 51.1 °F 30.2 in SW 9.2 mph 18.3 mph 70% 0 in 240 W/m2
12:21 60.1 °F 51.1 °F 30.2 in SW 7.6 mph 15.9 mph 72% 0 in 179 W/m2
12:26 59.4 °F 50.4 °F 30.2 in SW 7.6 mph 15.9 mph 72% 0 in 162 W/m2
12:31 59.2 °F 50.5 °F 30.2 in SW 6 mph 15.9 mph 73% 0 in 192 W/m2
12:36 59.5 °F 50.9 °F 30.2 in SW 11.4 mph 15.2 mph 73% 0 in 236 W/m2
12:41 59.4 °F 50 °F 30.2 in SW 13 mph 19 mph 71% 0 in 109 W/m2
12:46 59.4 °F 50.7 °F 30.2 in SW 7.6 mph 19 mph 73% 0 in 196 W/m2
12:51 59.5 °F 50.2 °F 30.2 in SW 7.6 mph 19 mph 71% 0 in 210 W/m2
12:56 60.1 °F 50.4 °F 30.2 in SW 9.2 mph 17.4 mph 70% 0 in 496 W/m2
13:01 60.3 °F 49.6 °F 30.2 in SW 9.2 mph 16.8 mph 68% 0 in 210 W/m2
13:06 60.3 °F 50.2 °F 30.2 in SW 10.7 mph 16.8 mph 69% 0 in 213 W/m2
13:11 60.3 °F 50.5 °F 30.2 in WSW 6 mph 13.6 mph 70% 0 in 238 W/m2
13:16 60.4 °F 49.8 °F 30.2 in SW 8.3 mph 15.9 mph 68% 0 in 317 W/m2
13:21 60.8 °F 48.9 °F 30.2 in SW 6 mph 15.9 mph 65% 0 in 193 W/m2
13:26 60.3 °F 48.9 °F 30.2 in SW 7.6 mph 14.5 mph 66% 0 in 164 W/m2
13:31 60.1 °F 49.1 °F 30.2 in WSW 4.5 mph 13 mph 67% 0 in 132 W/m2
13:36 59.7 °F 49.5 °F 30.2 in WSW 4.5 mph 13 mph 69% 0 in 168 W/m2
13:41 59.4 °F 48.7 °F 30.2 in SW 5.4 mph 15.2 mph 68% 0 in 101 W/m2
13:46 59.4 °F 49.3 °F 30.2 in SW 4.5 mph 15.2 mph 69% 0 in 97 W/m2
13:51 59.2 °F 49.5 °F 30.2 in SW 3.8 mph 10.7 mph 70% 0 in 49 W/m2
13:56 59 °F 49.3 °F 30.2 in SW 7.6 mph 10.7 mph 70% 0 in 42 W/m2
14:01 58.8 °F 50.2 °F 30.2 in SW 5.4 mph 10.7 mph 73% 0 in 90 W/m2
14:06 58.8 °F 50.2 °F 30.2 in SW 2.2 mph 10.7 mph 73% 0 in 85 W/m2
14:11 59 °F 49.3 °F 30.2 in SW 6.9 mph 9.8 mph 70% 0 in 65 W/m2
14:16 59 °F 48.9 °F 30.2 in SW 6 mph 9.2 mph 69% 0 in 48 W/m2
14:21 57.6 °F 49.3 °F 30.2 in SW 3.8 mph 9.2 mph 74% 0.01 in 47 W/m2
14:26 56.8 °F 49.6 °F 30.2 in SW 3.1 mph 9.2 mph 77% 0.01 in 39 W/m2
14:31 56.5 °F 49.6 °F 30.2 in Calm   9.2 mph 78% 0.01 in 45 W/m2
14:36 56.7 °F 49.5 °F 30.2 in SW 9.8 mph 15.2 mph 77% 0.01 in 66 W/m2
14:41 58.1 °F 48.4 °F 30.2 in SSW 10.7 mph 17.4 mph 70% 0.01 in 125 W/m2
14:46 58.1 °F 48.4 °F 30.2 in SW 8.3 mph 17.4 mph 70% 0.01 in 105 W/m2
14:51 58.1 °F 48.4 °F 30.2 in West 8.3 mph 14.5 mph 70% 0.01 in 66 W/m2
14:56 58.1 °F 48.4 °F 30.2 in WNW 8.3 mph 14.5 mph 70% 0.01 in 66 W/m2
15:15 55.8 °F 49.6 °F 30.2 in SW 6.9 mph 11.4 mph 80% 0.02 in 32 W/m2
15:20 56.1 °F 49.5 °F 30.2 in SW 7.6 mph 13.6 mph 78% 0.01 in 38 W/m2
15:25 56.8 °F 49.6 °F 30.2 in SW 9.8 mph 13.6 mph 77% 0.01 in 52 W/m2
15:30 57.2 °F 48.9 °F 30.2 in SSW 6 mph 12.1 mph 74% 0.01 in 58 W/m2
15:35 57.7 °F 48.7 °F 30.2 in South 10.7 mph 14.5 mph 72% 0.01 in 58 W/m2
15:40 57.7 °F 48.7 °F 30.2 in South 10.7 mph 14.5 mph 72% 0.01 in 65 W/m2
15:45 58.5 °F 49.5 °F 30.2 in South 13 mph 21.3 mph 72% 0.01 in 68 W/m2
15:50 58.5 °F 49.5 °F 30.2 in South 11.4 mph 21.3 mph 72% 0.01 in 77 W/m2
15:55 58.5 °F 48.7 °F 30.2 in SSW 12.1 mph 21.3 mph 70% 0.01 in 51 W/m2
16:00 58.5 °F 49.5 °F 30.2 in SSW 16.8 mph 28.2 mph 72% 0.01 in 55 W/m2
16:05 58.3 °F 47.8 °F 30.2 in SSW 11.4 mph 28.2 mph 68% 0.01 in 59 W/m2
16:10 58.3 °F 48.6 °F 30.2 in SSW 10.7 mph 28.2 mph 70% 0 in 53 W/m2
16:15 58.1 °F 48.4 °F 30.2 in SW 18.3 mph 22.1 mph 70% 0 in 58 W/m2
16:20 58.1 °F 47.7 °F 30.2 in SW 13.6 mph 22.1 mph 68% 0 in 65 W/m2
16:25 58.3 °F 48.6 °F 30.2 in SSW 16.8 mph 25.1 mph 70% 0 in 53 W/m2
16:30 58.1 °F 47.1 °F 30.2 in SSW 14.5 mph 25.9 mph 67% 0 in 41 W/m2
16:35 57.9 °F 48.2 °F 30.2 in SSW 13.6 mph 25.9 mph 70% 0 in 37 W/m2
16:40 57.7 °F 48.4 °F 30.2 in SSW 16.8 mph 24.4 mph 71% 0 in 39 W/m2
16:45 57.7 °F 48.7 °F 30.2 in SSW 9.8 mph 24.4 mph 72% 0 in 42 W/m2
16:50 57.7 °F 49.3 °F 30.2 in SSW 12.1 mph 22.8 mph 73% 0 in 22 W/m2
16:55 57.7 °F 49.5 °F 30.2 in SSW 13 mph 22.8 mph 74% 0 in 19 W/m2
17:00 57.7 °F 49.5 °F 30.2 in SW 12.1 mph 22.8 mph 74% 0 in 19 W/m2
17:05 57.7 °F 49.5 °F 30.2 in SSW 11.4 mph 25.1 mph 74% 0 in 20 W/m2
17:10 57.6 °F 48.2 °F 30.2 in SSW 14.5 mph 25.1 mph 71% 0 in 14 W/m2
17:15 57.6 °F 48.6 °F 30.2 in SSW 11.4 mph 22.8 mph 72% 0 in 12 W/m2
17:20 57.7 °F 48.7 °F 30.2 in SSW 12.1 mph 22.8 mph 72% 0 in 8 W/m2
17:25 57.6 °F 46.8 °F 30.2 in SSW 11.4 mph 21.3 mph 67% 0 in 5 W/m2
17:30 57.7 °F 46.9 °F 30.2 in SSW 10.7 mph 22.8 mph 67% 0 in 3 W/m2
17:35 57.7 °F 46.9 °F 30.2 in SSW 15.9 mph 25.1 mph 67% 0 in 1 W/m2
17:40 57.7 °F 46.9 °F 30.2 in SSW 14.5 mph 25.1 mph 67% 0 in 0 W/m2
17:45 57.7 °F 46.6 °F 30.2 in SSW 8.3 mph 22.8 mph 66% 0 in 0 W/m2
17:50 57.7 °F 46.9 °F 30.2 in SSW 13 mph 22.8 mph 67% 0 in 0 W/m2
17:55 57.6 °F 47.1 °F 30.2 in SSW 14.5 mph 19.7 mph 68% 0 in 0 W/m2
18:00 57.6 °F 47.5 °F 30.2 in SSW 11.4 mph 21.3 mph 69% 0 in 0 W/m2
18:05 57.4 °F 48.7 °F 30.2 in SSW 15.9 mph 22.8 mph 73% 0 in 0 W/m2
18:10 56.5 °F 47.8 °F 30.2 in South 13.6 mph 28.9 mph 73% 0 in 0 W/m2
18:15 56.7 °F 49.3 °F 30.2 in SSW 9.2 mph 28.9 mph 76% 0 in 0 W/m2
18:20 57 °F 49.8 °F 30.2 in SSW 17.4 mph 29.8 mph 77% 0 in 0 W/m2
18:25 56.8 °F 48.9 °F 30.2 in South 13.6 mph 29.8 mph 75% 0 in 0 W/m2
18:30 56.8 °F 48.9 °F 30.2 in SSW 14.5 mph 29.8 mph 75% 0 in 0 W/m2
18:35 56.7 °F 48.7 °F 30.2 in SW 16.8 mph 25.1 mph 75% 0 in 0 W/m2
18:40 56.8 °F 48.9 °F 30.2 in SSW 17.4 mph 26.6 mph 75% 0 in 0 W/m2
18:45 56.7 °F 48.7 °F 30.2 in SSW 13.6 mph 26.6 mph 75% 0 in 0 W/m2
18:50 56.7 °F 48 °F 30.2 in SSW 15.2 mph 25.9 mph 73% 0 in 0 W/m2
18:55 56.8 °F 47.5 °F 30.2 in SSW 13.6 mph 25.9 mph 71% 0 in 0 W/m2
19:00 57 °F 46.9 °F 30.2 in SSW 10.7 mph 25.9 mph 69% 0 in 0 W/m2
19:05 56.8 °F 46.8 °F 30.2 in SSW 15.9 mph 25.9 mph 69% 0 in 0 W/m2
19:10 56.7 °F 46.9 °F 30.2 in SSW 12.1 mph 23.5 mph 70% 0 in 0 W/m2
19:15 56.7 °F 46.6 °F 30.2 in SSW 15.9 mph 23.5 mph 69% 0 in 0 W/m2
19:20 56.7 °F 45.9 °F 30.2 in SSW 15.2 mph 23.5 mph 67% 0 in 0 W/m2
19:25 56.7 °F 46.2 °F 30.2 in South 13 mph 25.9 mph 68% 0 in 0 W/m2
19:30 56.7 °F 46.6 °F 30.2 in SSW 14.5 mph 25.9 mph 69% 0 in 0 W/m2
19:35 56.7 °F 47.5 °F 30.2 in SW 11.4 mph 22.8 mph 71% 0 in 0 W/m2
19:40 56.7 °F 48 °F 30.2 in SSW 12.1 mph 22.8 mph 73% 0 in 0 W/m2
19:45 56.7 °F 49.3 °F 30.2 in SSW 12.1 mph 20.6 mph 76% 0 in 0 W/m2
19:50 56.3 °F 48.6 °F 30.3 in SSW 17.4 mph 22.8 mph 75% 0 in 0 W/m2
19:55 56.1 °F 48.7 °F 30.3 in SSW 12.1 mph 22.8 mph 76% 0 in 0 W/m2
20:00 55.9 °F 48 °F 30.3 in SSW 13.6 mph 22.8 mph 75% 0 in 0 W/m2
20:06 56.1 °F 47.7 °F 30.3 in SSW 7.6 mph 19.7 mph 73% 0 in 0 W/m2
20:11 56.1 °F 47.7 °F 30.3 in SSW 8.3 mph 19.7 mph 73% 0 in 0 W/m2
20:16 55.9 °F 45.9 °F 30.3 in SW 10.7 mph 20.6 mph 69% 0 in 0 W/m2
20:21 55.9 °F 45.1 °F 30.3 in SW 12.1 mph 22.1 mph 67% 0 in 0 W/m2
20:26 56.1 °F 45.7 °F 30.3 in SW 11.4 mph 22.1 mph 68% 0 in 0 W/m2
20:31 56.3 °F 46.2 °F 30.3 in SW 14.5 mph 22.8 mph 69% 0 in 0 W/m2
20:36 55.9 °F 45.5 °F 30.3 in SW 12.1 mph 22.8 mph 68% 0 in 0 W/m2
20:41 55.9 °F 45.9 °F 30.3 in SW 9.8 mph 21.3 mph 69% 0 in 0 W/m2
20:46 55.8 °F 45.9 °F 30.3 in SSW 11.4 mph 19.7 mph 69% 0 in 0 W/m2
20:51 55.6 °F 45.1 °F 30.3 in SW 7.6 mph 19.7 mph 68% 0 in 0 W/m2
20:56 55.4 °F 45 °F 30.3 in SW 6.9 mph 17.4 mph 68% 0 in 0 W/m2
21:01 55.4 °F 45 °F 30.3 in SW 6.9 mph 13.6 mph 68% 0 in 0 W/m2
21:06 55.4 °F 45 °F 30.3 in SW 14.5 mph 17.4 mph 68% 0 in 0 W/m2
21:11 55.2 °F 45.1 °F 30.3 in SW 6.9 mph 17.4 mph 69% 0 in 0 W/m2
21:16 55.2 °F 45.1 °F 30.3 in SW 6.9 mph 17.4 mph 69% 0 in 0 W/m2
21:21 55.2 °F 45.1 °F 30.3 in SW 7.6 mph 18.3 mph 69% 0 in 0 W/m2
21:26 55.2 °F 45 °F 30.3 in SW 7.6 mph 18.3 mph 68% 0 in 0 W/m2
21:31 55.2 °F 45.7 °F 30.3 in WSW 11.4 mph 18.3 mph 70% 0 in 0 W/m2
21:36 55.2 °F 45 °F 30.3 in SW 10.7 mph 18.3 mph 68% 0 in 0 W/m2
21:41 55.2 °F 45.7 °F 30.3 in SW 7.6 mph 18.3 mph 70% 0 in 0 W/m2
21:46 55 °F 45.3 °F 30.3 in WSW 11.4 mph 17.4 mph 70% 0 in 0 W/m2
21:51 55 °F 45.3 °F 30.3 in West 8.3 mph 17.4 mph 70% 0 in 0 W/m2
21:56 54.9 °F 45.3 °F 30.3 in SW 9.2 mph 19 mph 70% 0 in 0 W/m2
22:01 54.7 °F 45.5 °F 30.3 in SW 9.2 mph 19 mph 71% 0 in 0 W/m2
22:06 54.7 °F 45.9 °F 30.3 in SW 8.3 mph 19 mph 72% 0 in 0 W/m2
22:11 54.5 °F 45.3 °F 30.3 in WSW 10.7 mph 14.5 mph 71% 0 in 0 W/m2
22:16 54.5 °F 45.3 °F 30.3 in SW 9.8 mph 14.5 mph 71% 0 in 0 W/m2
22:21 54.5 °F 45 °F 30.3 in WSW 7.6 mph 18.3 mph 70% 0 in 0 W/m2
22:26 54.3 °F 45.1 °F 30.3 in WSW 3.1 mph 18.3 mph 71% 0 in 0 W/m2
22:31 54.1 °F 45 °F 30.3 in WSW 3.1 mph 13 mph 71% 0 in 0 W/m2
22:36 54 °F 45.1 °F 30.3 in WSW 0.7 mph 13 mph 72% 0 in 0 W/m2
22:41 53.6 °F 44.8 °F 30.3 in West 2.2 mph 6 mph 72% 0 in 0 W/m2
22:46 53.4 °F 45 °F 30.3 in West 0.7 mph 7.6 mph 73% 0 in 0 W/m2
22:51 53.1 °F 44.6 °F 30.3 in Calm   7.6 mph 73% 0 in 0 W/m2
22:56 52.2 °F 44.1 °F 30.3 in NW 0.7 mph 6.9 mph 74% 0 in 0 W/m2
23:01 51.8 °F 44.1 °F 30.3 in NW 2.2 mph 6.9 mph 75% 0 in 0 W/m2
23:06 51.4 °F 44.1 °F 30.3 in Calm   3.8 mph 76% 0 in 0 W/m2
23:11 51.3 °F 44.2 °F 30.3 in Calm   3.8 mph 77% 0 in 0 W/m2
23:16 51.1 °F 44.1 °F 30.3 in NW 2.2 mph 5.4 mph 77% 0 in 0 W/m2
23:21 50.9 °F 44.1 °F 30.3 in NW 2.2 mph 5.4 mph 77% 0 in 0 W/m2
23:26 50.7 °F 44.1 °F 30.3 in NW 2.2 mph 5.4 mph 78% 0 in 0 W/m2
23:31 50.7 °F 44.4 °F 30.3 in NW 3.1 mph 6.9 mph 79% 0 in 0 W/m2
23:36 50.7 °F 44.4 °F 30.3 in NW 3.8 mph 6.9 mph 79% 0 in 0 W/m2
23:41 50.7 °F 44.4 °F 30.3 in NW 4.5 mph 8.3 mph 79% 0 in 0 W/m2
23:46 50.9 °F 44.6 °F 30.3 in NNW 5.4 mph 8.3 mph 79% 0 in 0 W/m2
23:51 50.9 °F 44.2 °F 30.3 in NW 4.5 mph 9.8 mph 78% 0 in 0 W/m2
23:56 51.1 °F 44.4 °F 30.3 in NW 3.8 mph 9.8 mph 78% 0 in 0 W/m2
Northern Hawkes Bay. New Zealand Historic Data
Compliments of Weather Underground - 2 mb